createdAt,value
2017-07-20T00:01:32.866Z,3.97
2017-07-20T00:02:44.495Z,3.97
2017-07-20T00:05:03.472Z,3.97
2017-07-20T00:06:12.693Z,3.97
2017-07-20T00:07:19.676Z,3.98
2017-07-20T00:08:27.765Z,3.98
2017-07-20T00:09:37.988Z,3.97
2017-07-20T00:10:48.016Z,3.97
2017-07-20T00:11:58.499Z,3.97
2017-07-20T00:13:04.995Z,3.97
2017-07-20T00:14:13.617Z,3.97
2017-07-20T00:15:20.152Z,3.97
2017-07-20T00:16:26.870Z,3.97
2017-07-20T00:17:35.461Z,3.98
2017-07-20T00:18:44.686Z,3.97
2017-07-20T00:19:54.153Z,3.97
2017-07-20T00:21:04.001Z,3.97
2017-07-20T00:22:12.889Z,3.97
2017-07-20T00:23:25.233Z,3.97
2017-07-20T00:24:35.548Z,3.97
2017-07-20T00:25:46.005Z,3.97
2017-07-20T00:26:56.509Z,3.97
2017-07-20T00:28:04.509Z,3.97
2017-07-20T00:29:13.533Z,3.97
2017-07-20T00:30:22.019Z,3.97
2017-07-20T00:31:30.884Z,3.97
2017-07-20T00:32:39.517Z,3.97
2017-07-20T00:33:49.518Z,3.97
2017-07-20T00:34:56.886Z,3.97
2017-07-20T00:36:06.523Z,3.97
2017-07-20T00:37:14.123Z,3.97
2017-07-20T00:38:25.031Z,3.97
2017-07-20T00:39:31.333Z,3.96
2017-07-20T00:40:39.944Z,3.97
2017-07-20T00:41:49.104Z,3.96
2017-07-20T00:42:56.955Z,3.97
2017-07-20T00:44:05.547Z,3.97
2017-07-20T00:45:13.771Z,3.97
2017-07-20T00:46:23.538Z,3.97
2017-07-20T00:47:29.549Z,3.96
2017-07-20T00:48:38.754Z,3.97
2017-07-20T00:49:44.834Z,3.97
2017-07-20T00:52:06.832Z,3.97
2017-07-20T00:53:18.127Z,3.96
2017-07-20T00:54:27.371Z,3.96
2017-07-20T00:55:34.711Z,3.96
2017-07-20T00:56:44.555Z,3.97
2017-07-20T00:57:55.073Z,3.96
2017-07-20T00:59:02.218Z,3.96
2017-07-20T01:00:12.222Z,3.96
2017-07-20T01:01:22.292Z,3.95
2017-07-20T01:02:32.283Z,3.96
2017-07-20T01:03:40.309Z,3.96
2017-07-20T01:04:49.445Z,3.97
2017-07-20T01:05:56.034Z,3.97
2017-07-20T01:07:04.141Z,3.96
2017-07-20T01:08:11.946Z,3.95
2017-07-20T01:09:23.090Z,3.95
2017-07-20T01:10:33.719Z,3.96
2017-07-20T01:11:44.589Z,3.96
2017-07-20T01:12:52.373Z,3.95
2017-07-20T01:14:03.084Z,3.95
2017-07-20T01:15:10.595Z,3.96
2017-07-20T01:17:32.359Z,3.95
2017-07-20T01:18:41.090Z,3.95
2017-07-20T01:19:48.700Z,3.95
2017-07-20T01:20:58.099Z,3.95
2017-07-20T01:22:07.604Z,3.95
2017-07-20T01:23:16.098Z,3.95
2017-07-20T01:25:36.211Z,3.95
2017-07-20T01:26:46.720Z,3.96
2017-07-20T01:27:56.366Z,3.95
2017-07-20T01:29:05.756Z,3.96
2017-07-20T01:30:13.110Z,3.95
2017-07-20T01:31:20.877Z,3.95
2017-07-20T01:32:29.596Z,3.95
2017-07-20T01:33:39.120Z,3.95
2017-07-20T01:34:49.939Z,3.94
2017-07-20T01:35:58.964Z,3.95
2017-07-20T01:37:06.372Z,3.95
2017-07-20T01:38:15.902Z,3.95
2017-07-20T01:39:27.375Z,3.95
2017-07-20T01:40:36.125Z,3.95
2017-07-20T01:41:42.773Z,3.95
2017-07-20T01:42:53.135Z,3.95
2017-07-20T01:44:00.146Z,3.95
2017-07-20T01:45:10.523Z,3.95
2017-07-20T01:46:19.648Z,3.95
2017-07-20T01:47:27.663Z,3.95
2017-07-20T01:48:38.405Z,3.95
2017-07-20T01:49:44.670Z,3.95
2017-07-20T01:50:50.259Z,3.94
2017-07-20T01:52:00.672Z,3.94
2017-07-20T01:53:05.448Z,3.95
2017-07-20T01:54:13.674Z,3.95
2017-07-20T01:55:19.916Z,3.94
2017-07-20T01:56:27.651Z,3.95
2017-07-20T01:57:35.797Z,3.94
2017-07-20T01:58:42.904Z,3.95
2017-07-20T01:59:49.824Z,3.95
2017-07-20T02:00:56.875Z,3.94
2017-07-20T02:02:02.513Z,3.94
2017-07-20T02:04:21.671Z,3.95
2017-07-20T02:05:28.065Z,3.95
2017-07-20T02:06:36.838Z,3.94
2017-07-20T02:07:45.668Z,3.95
2017-07-20T02:08:52.673Z,3.94
2017-07-20T02:10:01.172Z,3.95
2017-07-20T02:11:09.603Z,3.94
2017-07-20T02:12:18.876Z,3.94
2017-07-20T02:13:26.681Z,3.94
2017-07-20T02:14:35.371Z,3.94
2017-07-20T02:15:41.683Z,3.94
2017-07-20T02:16:50.586Z,3.94
2017-07-20T02:18:01.410Z,3.94
2017-07-20T02:19:07.371Z,3.94
2017-07-20T02:20:16.189Z,3.94
2017-07-20T02:21:21.103Z,3.94
2017-07-20T02:22:26.284Z,3.95
2017-07-20T02:23:34.703Z,3.95
2017-07-20T02:24:40.392Z,3.94
2017-07-20T02:25:47.698Z,3.94
2017-07-20T02:26:51.630Z,3.94
2017-07-20T02:27:58.205Z,3.94
2017-07-20T02:29:04.844Z,3.94
2017-07-20T02:30:09.997Z,3.94
2017-07-20T02:31:16.300Z,3.94
2017-07-20T02:32:23.992Z,3.94
2017-07-20T02:33:32.894Z,3.94
2017-07-20T02:34:39.734Z,3.94
2017-07-20T02:35:49.232Z,3.94
2017-07-20T02:36:55.716Z,3.94
2017-07-20T02:38:02.911Z,3.94
2017-07-20T02:39:08.400Z,3.94
2017-07-20T02:40:15.007Z,3.94
2017-07-20T02:41:22.896Z,3.93
2017-07-20T02:42:30.055Z,3.94
2017-07-20T02:43:37.726Z,3.94
2017-07-20T02:44:44.953Z,3.94
2017-07-20T02:45:52.559Z,3.94
2017-07-20T02:47:00.757Z,3.94
2017-07-20T02:48:09.489Z,3.94
2017-07-20T02:49:17.740Z,3.94
2017-07-20T02:50:27.236Z,3.94
2017-07-20T02:51:32.389Z,3.94
2017-07-20T02:52:41.260Z,3.92
2017-07-20T02:53:47.765Z,3.94
2017-07-20T02:54:56.611Z,3.93
2017-07-20T02:56:06.746Z,3.92
2017-07-20T02:57:12.038Z,3.93
2017-07-20T02:58:20.511Z,3.93
2017-07-20T02:59:27.457Z,3.94
2017-07-20T03:00:36.566Z,3.93
2017-07-20T03:02:56.554Z,3.94
2017-07-20T03:04:03.923Z,3.93
2017-07-20T03:05:14.760Z,3.93
2017-07-20T03:06:22.262Z,3.94
2017-07-20T03:07:29.466Z,3.93
2017-07-20T03:08:38.265Z,3.92
2017-07-20T03:09:44.767Z,3.93
2017-07-20T03:10:52.828Z,3.93
2017-07-20T03:12:01.272Z,3.93
2017-07-20T03:13:11.570Z,3.93
2017-07-20T03:14:20.038Z,3.92
2017-07-20T03:15:27.418Z,3.92
2017-07-20T03:16:35.952Z,3.93
2017-07-20T03:17:42.686Z,3.94
2017-07-20T03:18:50.599Z,3.93
2017-07-20T03:19:59.942Z,3.93
2017-07-20T03:21:08.407Z,3.92
2017-07-20T03:22:14.095Z,3.93
2017-07-20T03:23:21.405Z,3.92
2017-07-20T03:24:29.808Z,3.93
2017-07-20T03:25:36.607Z,3.92
2017-07-20T03:26:44.404Z,3.92
2017-07-20T03:27:53.802Z,3.93
2017-07-20T03:29:01.237Z,3.92
2017-07-20T03:30:09.878Z,3.93
2017-07-20T03:31:19.994Z,3.93
2017-07-20T03:32:26.241Z,3.94
2017-07-20T03:33:31.277Z,3.93
2017-07-20T03:34:37.013Z,3.93
2017-07-20T03:35:44.310Z,3.93
2017-07-20T03:36:54.313Z,3.93
2017-07-20T03:37:58.817Z,3.92
2017-07-20T03:39:07.316Z,3.92
2017-07-20T03:40:15.317Z,3.92
2017-07-20T03:41:23.443Z,3.93
2017-07-20T03:42:31.121Z,4.07
2017-07-20T03:43:41.272Z,4.12
2017-07-20T03:44:48.842Z,4.14
2017-07-20T03:45:54.326Z,4.14
2017-07-20T03:47:00.599Z,4.14
2017-07-20T03:48:09.154Z,4.14
2017-07-20T03:49:15.557Z,4.14
2017-07-20T03:50:21.332Z,4.14
2017-07-20T03:51:32.334Z,4.14
2017-07-20T03:52:39.614Z,4.14
2017-07-20T03:53:46.339Z,4.14
2017-07-20T03:54:55.843Z,4.14
2017-07-20T03:56:01.093Z,4.14
2017-07-20T03:57:09.080Z,4.14
2017-07-20T03:58:18.132Z,4.14
2017-07-20T03:59:25.400Z,4.14
2017-07-20T04:00:31.361Z,4.13
2017-07-20T04:01:39.741Z,4.14
2017-07-20T04:02:46.405Z,4.14
2017-07-20T04:03:54.612Z,4.14
2017-07-20T04:05:02.490Z,4.14
2017-07-20T04:06:09.816Z,4.14
2017-07-20T04:07:16.579Z,4.14
2017-07-20T04:08:25.050Z,4.14
2017-07-20T04:09:35.533Z,4.14
2017-07-20T04:10:43.867Z,4.14
2017-07-20T04:11:49.882Z,4.14
2017-07-20T04:12:56.369Z,4.14
2017-07-20T04:14:02.012Z,4.14
2017-07-20T04:15:11.443Z,4.14
2017-07-20T04:16:18.544Z,4.13
2017-07-20T04:17:23.710Z,4.13
2017-07-20T04:18:34.909Z,4.13
2017-07-20T04:19:41.836Z,4.12
2017-07-20T04:20:50.228Z,4.11
2017-07-20T04:21:59.907Z,4.11
2017-07-20T04:23:07.944Z,4.12
2017-07-20T04:24:13.388Z,4.11
2017-07-20T04:25:23.232Z,4.11
2017-07-20T04:26:31.205Z,4.11
2017-07-20T04:27:39.401Z,4.10
2017-07-20T04:28:47.685Z,4.10
2017-07-20T04:29:56.963Z,4.10
2017-07-20T04:31:04.161Z,4.10
2017-07-20T04:32:10.417Z,4.10
2017-07-20T04:33:18.902Z,4.11
2017-07-20T04:34:27.404Z,4.11
2017-07-20T04:35:34.477Z,4.11
2017-07-20T04:36:44.125Z,4.11
2017-07-20T04:37:53.928Z,4.11
2017-07-20T04:39:02.246Z,4.12
2017-07-20T04:40:13.412Z,4.12
2017-07-20T04:41:22.423Z,4.12
2017-07-20T04:42:30.951Z,4.11
2017-07-20T04:43:39.499Z,4.12
2017-07-20T04:44:48.420Z,4.11
2017-07-20T04:45:57.421Z,4.11
2017-07-20T04:47:06.951Z,4.10
2017-07-20T04:48:15.442Z,4.10
2017-07-20T04:49:23.629Z,4.11
2017-07-20T04:51:41.930Z,4.11
2017-07-20T04:52:50.800Z,4.11
2017-07-20T04:54:00.448Z,4.12
2017-07-20T04:55:07.496Z,4.12
2017-07-20T04:56:12.301Z,4.12
2017-07-20T04:57:22.940Z,4.12
2017-07-20T04:58:33.077Z,4.12
2017-07-20T04:59:40.443Z,4.10
2017-07-20T05:00:49.949Z,4.12
2017-07-20T05:01:59.454Z,4.10
2017-07-20T05:03:06.891Z,4.10
2017-07-20T05:04:14.134Z,4.10
2017-07-20T05:05:22.760Z,4.10
2017-07-20T05:06:31.965Z,4.08
2017-07-20T05:07:41.979Z,4.08
2017-07-20T05:08:51.259Z,4.06
2017-07-20T05:09:58.109Z,4.06
2017-07-20T05:11:07.097Z,4.06
2017-07-20T05:12:16.964Z,4.08
2017-07-20T05:15:49.469Z,4.11
2017-07-20T05:17:00.130Z,4.12
2017-07-20T05:18:08.957Z,4.11
2017-07-20T05:19:17.975Z,4.12
2017-07-20T05:20:22.620Z,4.13
2017-07-20T05:21:30.513Z,4.13
2017-07-20T05:22:39.481Z,4.12
2017-07-20T05:23:44.603Z,4.14
2017-07-20T05:24:53.986Z,4.14
2017-07-20T05:25:57.763Z,4.13
2017-07-20T05:27:06.674Z,4.13
2017-07-20T05:28:13.379Z,4.13
2017-07-20T05:29:21.854Z,4.13
2017-07-20T05:30:30.730Z,4.13
2017-07-20T05:31:38.028Z,4.13
2017-07-20T05:32:44.720Z,4.13
2017-07-20T05:33:52.509Z,4.12
2017-07-20T05:34:57.863Z,4.12
2017-07-20T05:36:06.503Z,4.13
2017-07-20T05:37:17.075Z,4.12
2017-07-20T05:38:25.249Z,4.13
2017-07-20T05:39:34.324Z,4.13
2017-07-20T05:40:44.509Z,4.12
2017-07-20T05:41:54.031Z,4.12
2017-07-20T05:44:13.511Z,4.13
2017-07-20T05:45:21.017Z,4.13
2017-07-20T05:46:28.201Z,4.13
2017-07-20T05:47:34.741Z,4.12
2017-07-20T05:48:40.497Z,4.12
2017-07-20T05:49:50.432Z,4.13
2017-07-20T05:50:59.629Z,4.13
2017-07-20T05:52:09.062Z,4.13
2017-07-20T05:53:16.853Z,4.13
2017-07-20T05:54:25.300Z,4.13
2017-07-20T05:55:33.818Z,4.13
2017-07-20T05:56:42.212Z,4.14
2017-07-20T05:57:51.953Z,4.12
2017-07-20T05:59:01.545Z,4.11
2017-07-20T06:00:09.418Z,4.10
2017-07-20T06:01:20.561Z,4.07
2017-07-20T06:02:28.253Z,4.06
2017-07-20T06:03:37.552Z,4.05
2017-07-20T06:07:09.352Z,4.08
2017-07-20T06:08:19.351Z,4.10
2017-07-20T06:09:27.568Z,4.10
2017-07-20T06:10:35.558Z,4.10
2017-07-20T06:11:39.838Z,4.11
2017-07-20T06:12:48.580Z,4.11
2017-07-20T06:13:57.068Z,4.10
2017-07-20T06:15:07.066Z,4.08
2017-07-20T06:16:16.397Z,4.05
2017-07-20T06:17:24.592Z,3.92
2017-07-20T06:18:32.940Z,3.90
2017-07-20T06:19:44.076Z,3.91
2017-07-20T06:20:52.616Z,3.90
2017-07-20T06:22:01.381Z,3.91
2017-07-20T06:25:33.604Z,3.92
2017-07-20T06:27:52.585Z,3.92
2017-07-20T06:30:15.364Z,3.93
2017-07-20T06:31:25.722Z,3.93
2017-07-20T06:33:46.476Z,3.93
2017-07-20T06:36:06.598Z,3.94
2017-07-20T06:37:17.604Z,3.92
2017-07-20T06:38:26.603Z,3.92
2017-07-20T06:39:36.604Z,3.92
2017-07-20T06:40:45.147Z,3.92
2017-07-20T06:41:56.199Z,3.93
2017-07-20T06:43:05.005Z,3.93
2017-07-20T06:44:16.145Z,3.93
2017-07-20T06:45:24.190Z,3.92
2017-07-20T06:46:33.117Z,3.92
2017-07-20T06:47:41.639Z,3.92
2017-07-20T06:48:48.623Z,3.91
2017-07-20T06:49:56.624Z,3.92
2017-07-20T06:51:05.995Z,3.92
2017-07-20T06:52:14.905Z,3.92
2017-07-20T06:53:23.652Z,3.89
2017-07-20T06:54:30.137Z,3.92
2017-07-20T06:55:40.920Z,3.91
2017-07-20T06:56:49.636Z,3.92
2017-07-20T06:57:57.736Z,4.03
2017-07-20T06:59:05.536Z,4.07
2017-07-20T07:00:15.432Z,4.08
2017-07-20T07:01:22.985Z,4.08
2017-07-20T07:02:31.643Z,4.09
2017-07-20T07:03:39.342Z,4.08
2017-07-20T07:04:49.654Z,4.07
2017-07-20T07:05:56.817Z,4.07
2017-07-20T07:07:04.897Z,4.06
2017-07-20T07:08:13.802Z,4.07
2017-07-20T07:09:22.648Z,4.08
2017-07-20T07:10:30.157Z,4.10
2017-07-20T07:11:37.682Z,4.10
2017-07-20T07:12:45.750Z,4.11
2017-07-20T07:13:54.207Z,4.11
2017-07-20T07:15:03.202Z,4.12
2017-07-20T07:16:12.437Z,4.12
2017-07-20T07:17:20.843Z,4.12
2017-07-20T07:18:30.677Z,4.10
2017-07-20T07:19:39.765Z,4.09
2017-07-20T07:20:50.691Z,4.06
2017-07-20T07:23:11.196Z,3.92
2017-07-20T07:24:18.993Z,3.92
2017-07-20T07:25:26.708Z,3.91
2017-07-20T07:27:47.186Z,4.03
2017-07-20T07:28:56.252Z,4.07
2017-07-20T07:30:04.867Z,4.09
2017-07-20T07:31:13.694Z,4.10
2017-07-20T07:32:21.691Z,4.11
2017-07-20T07:33:28.693Z,4.11
2017-07-20T07:34:36.709Z,4.11
2017-07-20T07:36:59.204Z,4.12
2017-07-20T07:38:07.701Z,4.10
2017-07-20T07:39:15.394Z,4.10
2017-07-20T07:40:26.478Z,4.10
2017-07-20T07:41:35.892Z,4.10
2017-07-20T07:42:44.462Z,4.10
2017-07-20T07:43:52.974Z,4.11
2017-07-20T07:45:03.320Z,4.11
2017-07-20T07:46:14.501Z,4.11
2017-07-20T07:47:23.078Z,4.09
2017-07-20T07:48:33.217Z,4.08
2017-07-20T07:49:41.221Z,4.01
2017-07-20T07:50:52.222Z,3.92
2017-07-20T07:51:58.227Z,3.92
2017-07-20T07:53:09.726Z,3.92
2017-07-20T07:54:15.755Z,3.92
2017-07-20T07:55:21.818Z,3.90
2017-07-20T07:56:31.351Z,3.92
2017-07-20T07:57:41.037Z,3.91
2017-07-20T07:58:49.847Z,3.91
2017-07-20T08:00:00.458Z,3.92
2017-07-20T08:01:09.739Z,3.84
2017-07-20T08:02:19.246Z,3.91
2017-07-20T08:03:29.682Z,3.92
2017-07-20T08:05:51.246Z,3.92
2017-07-20T08:07:00.766Z,3.92
2017-07-20T08:08:11.250Z,3.91
2017-07-20T08:09:20.488Z,3.92
2017-07-20T08:10:28.260Z,3.91
2017-07-20T08:11:39.048Z,3.92
2017-07-20T08:12:47.466Z,3.91
2017-07-20T08:13:55.362Z,3.92
2017-07-20T08:15:05.777Z,3.91
2017-07-20T08:16:14.872Z,3.92
2017-07-20T08:17:25.379Z,3.92
2017-07-20T08:20:54.911Z,3.92
2017-07-20T08:22:04.599Z,3.91
2017-07-20T08:23:11.688Z,3.92
2017-07-20T08:24:21.330Z,3.92
2017-07-20T08:25:28.697Z,3.92
2017-07-20T08:26:38.796Z,3.91
2017-07-20T08:27:46.950Z,3.92
2017-07-20T08:28:57.789Z,3.92
2017-07-20T08:30:08.801Z,3.91
2017-07-20T08:31:17.225Z,3.92
2017-07-20T08:32:25.861Z,3.92
2017-07-20T08:33:37.360Z,3.92
2017-07-20T08:34:47.376Z,3.92
2017-07-20T08:35:58.298Z,3.92
2017-07-20T08:37:07.597Z,3.92
2017-07-20T08:38:18.299Z,3.92
2017-07-20T08:39:28.484Z,3.91
2017-07-20T08:41:49.973Z,3.90
2017-07-20T08:42:57.821Z,4.02
2017-07-20T08:44:04.818Z,4.06
2017-07-20T08:45:14.207Z,4.06
2017-07-20T08:46:22.828Z,4.08
2017-07-20T08:47:33.002Z,4.05
2017-07-20T08:48:40.591Z,3.92
2017-07-20T08:49:50.322Z,3.92
2017-07-20T08:50:59.206Z,3.92
2017-07-20T08:52:06.644Z,3.94
2017-07-20T08:53:15.829Z,3.95
2017-07-20T08:54:22.518Z,3.92
2017-07-20T08:55:31.834Z,3.92
2017-07-20T08:56:38.068Z,3.95
2017-07-20T08:57:48.644Z,3.94
2017-07-20T08:58:55.879Z,3.94
2017-07-20T09:00:05.795Z,3.94
2017-07-20T09:01:17.339Z,3.93
2017-07-20T09:02:26.004Z,3.93
2017-07-20T09:03:34.650Z,3.93
2017-07-20T09:04:45.855Z,3.94
2017-07-20T09:05:54.557Z,3.95
2017-07-20T09:07:04.376Z,3.93
2017-07-20T09:08:12.850Z,3.93
2017-07-20T09:09:20.842Z,3.94
2017-07-20T09:10:27.898Z,3.93
2017-07-20T09:11:34.857Z,3.94
2017-07-20T09:12:43.875Z,3.93
2017-07-20T09:13:51.392Z,3.93
2017-07-20T09:14:56.585Z,3.93
2017-07-20T09:16:05.496Z,3.94
2017-07-20T09:17:15.510Z,3.94
2017-07-20T09:18:26.990Z,3.94
2017-07-20T09:19:35.374Z,3.94
2017-07-20T09:20:45.870Z,3.94
2017-07-20T09:21:52.872Z,3.94
2017-07-20T09:23:01.568Z,3.94
2017-07-20T09:24:09.554Z,3.94
2017-07-20T09:25:17.382Z,3.97
2017-07-20T09:26:26.882Z,3.95
2017-07-20T09:27:33.889Z,3.95
2017-07-20T09:28:43.472Z,3.96
2017-07-20T09:29:52.891Z,3.96
2017-07-20T09:31:01.154Z,3.95
2017-07-20T09:32:11.893Z,3.97
2017-07-20T09:33:18.273Z,3.95
2017-07-20T09:34:28.613Z,3.95
2017-07-20T09:35:35.901Z,3.95
2017-07-20T09:36:45.013Z,3.95
2017-07-20T09:37:52.404Z,3.96
2017-07-20T09:39:01.747Z,3.95
2017-07-20T09:40:10.629Z,3.95
2017-07-20T09:41:18.484Z,3.95
2017-07-20T09:42:28.420Z,3.96
2017-07-20T09:43:35.070Z,3.96
2017-07-20T09:44:43.574Z,3.95
2017-07-20T09:46:59.925Z,3.97
2017-07-20T09:48:09.933Z,3.97
2017-07-20T09:49:18.956Z,3.97
2017-07-20T09:50:30.127Z,3.97
2017-07-20T09:51:37.839Z,3.98
2017-07-20T09:52:48.432Z,3.97
2017-07-20T09:53:54.948Z,3.96
2017-07-20T09:55:02.334Z,3.96
2017-07-20T09:56:12.621Z,3.96
2017-07-20T09:57:23.231Z,3.97
2017-07-20T09:58:32.714Z,3.96
2017-07-20T09:59:39.124Z,3.96
2017-07-20T10:00:48.941Z,3.98
2017-07-20T10:01:56.941Z,3.97
2017-07-20T10:03:06.444Z,3.98
2017-07-20T10:04:12.950Z,3.97
2017-07-20T10:05:22.883Z,3.97
2017-07-20T10:06:30.661Z,3.97
2017-07-20T10:08:50.381Z,3.98
2017-07-20T10:09:59.661Z,3.98
2017-07-20T10:11:10.965Z,3.98
2017-07-20T10:12:17.520Z,3.99
2017-07-20T10:13:24.963Z,3.97
2017-07-20T10:14:32.988Z,3.98
2017-07-20T10:15:43.564Z,3.98
2017-07-20T10:16:51.296Z,3.99
2017-07-20T10:17:59.970Z,3.99
2017-07-20T10:19:10.765Z,3.99
2017-07-20T10:21:30.975Z,3.99
2017-07-20T10:22:38.482Z,3.99
2017-07-20T10:23:46.431Z,3.98
2017-07-20T10:24:54.983Z,3.99
2017-07-20T10:26:04.983Z,3.99
2017-07-20T10:27:14.513Z,3.99
2017-07-20T10:28:22.014Z,4.00
2017-07-20T10:29:30.696Z,3.99
2017-07-20T10:30:41.643Z,3.99
2017-07-20T10:31:50.493Z,4.00
2017-07-20T10:32:58.151Z,4.00
2017-07-20T10:34:07.504Z,4.01
2017-07-20T10:35:17.014Z,4.01
2017-07-20T10:36:24.008Z,4.03
2017-07-20T10:37:30.666Z,4.01
2017-07-20T10:38:42.006Z,4.01
2017-07-20T10:39:50.891Z,4.01
2017-07-20T10:40:59.516Z,4.01
2017-07-20T10:42:07.553Z,4.01
2017-07-20T10:43:15.540Z,4.01
2017-07-20T10:44:26.522Z,4.01
2017-07-20T10:46:48.533Z,4.01
2017-07-20T10:47:57.023Z,4.01
2017-07-20T10:49:05.221Z,4.01
2017-07-20T10:50:14.745Z,4.01
2017-07-20T10:51:22.734Z,4.01
2017-07-20T10:52:32.115Z,4.01
2017-07-20T10:53:42.531Z,4.02
2017-07-20T10:56:04.034Z,4.01
2017-07-20T10:57:12.487Z,4.02
2017-07-20T10:58:18.606Z,4.02
2017-07-20T10:59:29.049Z,4.03
2017-07-20T11:00:39.547Z,4.02
2017-07-20T11:01:45.045Z,4.03
2017-07-20T11:04:07.055Z,4.02
2017-07-20T11:05:12.928Z,4.02
2017-07-20T11:06:20.729Z,4.03
2017-07-20T11:07:29.080Z,4.01
2017-07-20T11:08:38.556Z,4.02
2017-07-20T11:09:45.716Z,4.03
2017-07-20T11:10:55.353Z,4.03
2017-07-20T11:12:06.567Z,4.03
2017-07-20T11:13:15.257Z,4.03
2017-07-20T11:14:22.581Z,4.03
2017-07-20T11:15:31.086Z,4.04
2017-07-20T11:16:39.740Z,4.03
2017-07-20T11:17:47.582Z,4.03
2017-07-20T11:18:56.595Z,4.03
2017-07-20T11:19:59.026Z,4.04
2017-07-20T11:21:06.755Z,4.03
2017-07-20T11:22:09.859Z,4.05
2017-07-20T11:23:20.043Z,4.06
2017-07-20T11:24:24.727Z,4.05
2017-07-20T11:25:27.992Z,4.05
2017-07-20T11:26:38.286Z,4.06
2017-07-20T11:27:42.044Z,4.05
2017-07-20T11:30:10.118Z,4.05
2017-07-20T11:31:12.643Z,4.05
2017-07-20T11:32:15.186Z,4.05
2017-07-20T11:33:17.672Z,4.05
2017-07-20T11:34:20.192Z,4.05
2017-07-20T11:35:22.700Z,4.05
2017-07-20T11:36:25.124Z,4.05
2017-07-20T11:37:27.656Z,4.05
2017-07-20T11:38:30.162Z,4.05
2017-07-20T11:39:32.680Z,4.05
2017-07-20T11:40:35.223Z,4.05
2017-07-20T11:41:37.635Z,4.05
2017-07-20T11:42:40.190Z,4.05
2017-07-20T11:43:42.664Z,4.05
2017-07-20T11:44:45.197Z,4.05
2017-07-20T11:45:47.663Z,4.06
2017-07-20T11:46:50.144Z,4.05
2017-07-20T11:47:52.569Z,4.06
2017-07-20T11:48:55.104Z,4.06
2017-07-20T11:49:57.593Z,4.06
2017-07-20T11:51:00.103Z,4.06
2017-07-20T11:52:02.610Z,4.06
2017-07-20T11:53:05.133Z,4.06
2017-07-20T11:54:07.625Z,4.06
2017-07-20T11:55:10.179Z,4.06
2017-07-20T11:56:12.658Z,4.06
2017-07-20T11:57:15.156Z,4.06
2017-07-20T11:58:17.617Z,4.06
2017-07-20T11:59:20.181Z,4.07
2017-07-20T12:00:22.761Z,4.06
2017-07-20T12:01:25.266Z,4.06
2017-07-20T12:02:27.755Z,4.06
2017-07-20T12:03:30.330Z,4.07
2017-07-20T12:04:32.891Z,4.06
2017-07-20T12:05:35.332Z,4.06
2017-07-20T12:06:37.854Z,4.06
2017-07-20T12:07:40.321Z,4.06
2017-07-20T12:08:42.836Z,4.05
2017-07-20T12:09:45.399Z,4.05
2017-07-20T12:10:47.977Z,4.06
2017-07-20T12:11:50.467Z,4.05
2017-07-20T12:12:52.955Z,4.06
2017-07-20T12:13:55.403Z,4.06
2017-07-20T12:14:57.887Z,4.05
2017-07-20T12:16:00.386Z,4.05
2017-07-20T12:17:02.868Z,4.06
2017-07-20T12:18:05.298Z,4.06
2017-07-20T12:19:07.825Z,4.06
2017-07-20T12:20:10.294Z,4.06
2017-07-20T12:21:27.475Z,4.05
2017-07-20T12:22:29.994Z,4.06
2017-07-20T12:23:33.106Z,4.06
2017-07-20T12:24:37.763Z,4.05
2017-07-20T12:25:47.025Z,4.06
2017-07-20T12:26:52.605Z,4.06
2017-07-20T12:27:57.006Z,4.05
2017-07-20T12:28:59.475Z,4.05
2017-07-20T12:30:05.584Z,4.06
2017-07-20T12:31:08.025Z,4.06
2017-07-20T12:32:10.569Z,4.06
2017-07-20T12:33:13.124Z,4.05
2017-07-20T12:34:15.673Z,4.06
2017-07-20T12:35:18.212Z,4.06
2017-07-20T12:36:20.716Z,4.06
2017-07-20T12:37:23.235Z,4.06
2017-07-20T12:38:25.708Z,4.06
2017-07-20T12:39:28.317Z,4.06
2017-07-20T12:40:30.900Z,4.05
2017-07-20T12:41:48.093Z,4.06
2017-07-20T12:42:50.653Z,4.06
2017-07-20T12:43:53.311Z,4.06
2017-07-20T12:44:55.752Z,4.06
2017-07-20T12:45:58.291Z,4.06
2017-07-20T12:47:00.755Z,4.06
2017-07-20T12:48:03.286Z,4.07
2017-07-20T12:49:05.859Z,4.07
2017-07-20T12:50:09.476Z,4.07
2017-07-20T12:51:12.000Z,4.06
2017-07-20T12:52:14.457Z,4.07
2017-07-20T12:53:17.050Z,4.07
2017-07-20T12:54:19.493Z,4.07
2017-07-20T12:55:22.275Z,4.08
2017-07-20T12:56:24.844Z,4.08
2017-07-20T12:57:27.327Z,4.07
2017-07-20T12:58:29.834Z,4.08
2017-07-20T12:59:32.362Z,4.08
2017-07-20T13:00:34.916Z,4.07
2017-07-20T13:01:38.250Z,4.08
2017-07-20T13:02:40.132Z,4.08
2017-07-20T13:03:42.633Z,4.08
2017-07-20T13:04:45.079Z,4.08
2017-07-20T13:05:47.543Z,4.08
2017-07-20T13:06:50.049Z,4.07
2017-07-20T13:07:52.487Z,4.08
2017-07-20T13:08:54.960Z,4.08
2017-07-20T13:09:57.395Z,4.07
2017-07-20T13:10:59.803Z,4.08
2017-07-20T13:12:02.298Z,4.08
2017-07-20T13:13:04.788Z,4.08
2017-07-20T13:14:07.272Z,4.08
2017-07-20T13:15:09.650Z,4.08
2017-07-20T13:16:12.203Z,4.08
2017-07-20T13:17:14.606Z,4.08
2017-07-20T13:18:17.078Z,4.08
2017-07-20T13:19:19.580Z,4.08
2017-07-20T13:20:21.982Z,4.08
2017-07-20T13:21:24.511Z,4.08
2017-07-20T13:22:26.999Z,4.08
2017-07-20T13:23:29.505Z,4.08
2017-07-20T13:24:32.000Z,4.09
2017-07-20T13:25:34.460Z,4.09
2017-07-20T13:26:36.920Z,4.09
2017-07-20T13:27:39.411Z,4.08
2017-07-20T13:28:41.859Z,4.09
2017-07-20T13:29:44.289Z,4.10
2017-07-20T13:30:46.634Z,4.09
2017-07-20T13:31:48.950Z,4.09
2017-07-20T13:32:51.328Z,4.08
2017-07-20T13:33:53.621Z,4.09
2017-07-20T13:34:55.962Z,4.09
2017-07-20T13:35:58.273Z,4.10
2017-07-20T13:37:00.623Z,4.09
2017-07-20T13:38:02.941Z,4.09
2017-07-20T13:39:05.216Z,4.09
2017-07-20T13:40:07.581Z,4.09
2017-07-20T13:41:09.954Z,4.09
2017-07-20T13:42:12.304Z,4.09
2017-07-20T13:43:14.730Z,4.09
2017-07-20T13:44:17.091Z,4.10
2017-07-20T13:45:19.394Z,4.10
2017-07-20T13:46:21.725Z,4.10
2017-07-20T13:47:24.111Z,4.09
2017-07-20T13:48:26.349Z,4.09
2017-07-20T13:49:28.621Z,4.10
2017-07-20T13:50:30.888Z,4.10
2017-07-20T13:51:33.152Z,4.09
2017-07-20T13:52:35.510Z,4.09
2017-07-20T13:53:37.785Z,4.10
2017-07-20T13:54:40.055Z,4.09
2017-07-20T13:55:42.372Z,4.09
2017-07-20T13:56:44.729Z,4.10
2017-07-20T13:57:47.044Z,4.10
2017-07-20T13:58:49.457Z,4.09
2017-07-20T13:59:51.883Z,4.10
2017-07-20T14:00:54.132Z,4.10
2017-07-20T14:01:56.369Z,4.10
2017-07-20T14:02:58.639Z,4.10
2017-07-20T14:04:00.951Z,4.10
2017-07-20T14:05:03.207Z,4.10
2017-07-20T14:06:05.493Z,4.11
2017-07-20T14:07:07.752Z,4.10
2017-07-20T14:08:10.049Z,4.09
2017-07-20T14:09:12.402Z,4.10
2017-07-20T14:10:14.829Z,4.10
2017-07-20T14:11:17.111Z,4.10
2017-07-20T14:12:19.462Z,4.10
2017-07-20T14:13:21.846Z,4.09
2017-07-20T14:14:24.263Z,4.09
2017-07-20T14:15:26.742Z,4.09
2017-07-20T14:16:29.260Z,4.10
2017-07-20T14:17:33.747Z,4.09
2017-07-20T14:18:38.425Z,4.10
2017-07-20T14:19:43.523Z,4.10
2017-07-20T14:21:04.800Z,4.09
2017-07-20T14:22:09.279Z,4.10
2017-07-20T14:23:11.689Z,4.09
2017-07-20T14:24:14.019Z,4.10
2017-07-20T14:25:16.362Z,4.10
2017-07-20T14:26:18.615Z,4.10
2017-07-20T14:27:21.010Z,4.09
2017-07-20T14:28:23.315Z,4.08
2017-07-20T14:29:25.557Z,4.09
2017-07-20T14:30:27.876Z,4.09
2017-07-20T14:31:30.255Z,4.08
2017-07-20T14:32:32.547Z,4.08
2017-07-20T14:33:34.960Z,4.08
2017-07-20T14:34:37.311Z,4.09
2017-07-20T14:35:39.622Z,4.09
2017-07-20T14:36:41.955Z,4.10
2017-07-20T14:37:44.291Z,4.09
2017-07-20T14:38:46.571Z,4.10
2017-07-20T14:39:48.889Z,4.09
2017-07-20T14:40:51.194Z,4.09
2017-07-20T14:41:53.531Z,4.09
2017-07-20T14:42:55.827Z,4.09
2017-07-20T14:43:58.202Z,4.09
2017-07-20T14:45:00.494Z,4.10
2017-07-20T14:46:02.787Z,4.09
2017-07-20T14:47:05.091Z,4.09
2017-07-20T14:48:07.420Z,4.10
2017-07-20T14:49:09.723Z,4.09
2017-07-20T14:50:12.020Z,4.09
2017-07-20T14:51:14.314Z,4.10
2017-07-20T14:52:16.587Z,4.09
2017-07-20T14:53:18.932Z,4.10
2017-07-20T14:54:21.228Z,4.10
2017-07-20T14:55:23.559Z,4.09
2017-07-20T14:56:25.837Z,4.10
2017-07-20T14:57:28.126Z,4.10
2017-07-20T14:58:30.417Z,4.09
2017-07-20T14:59:32.684Z,4.10
2017-07-20T15:00:34.993Z,4.09
2017-07-20T15:01:37.274Z,4.10
2017-07-20T15:02:39.575Z,4.10
2017-07-20T15:03:41.973Z,4.09
2017-07-20T15:04:44.283Z,4.09
2017-07-20T15:05:46.535Z,4.09
2017-07-20T15:06:48.802Z,4.09
2017-07-20T15:07:51.112Z,4.10
2017-07-20T15:08:53.465Z,4.10
2017-07-20T15:09:55.745Z,4.09
2017-07-20T15:10:57.956Z,4.10
2017-07-20T15:12:00.168Z,4.10
2017-07-20T15:13:02.421Z,4.09
2017-07-20T15:14:04.755Z,4.10
2017-07-20T15:15:07.047Z,4.09
2017-07-20T15:16:09.376Z,4.09
2017-07-20T15:17:11.655Z,4.09
2017-07-20T15:18:13.998Z,4.08
2017-07-20T15:19:16.333Z,4.09
2017-07-20T15:20:18.626Z,4.09
2017-07-20T15:21:20.956Z,4.09
2017-07-20T15:22:23.254Z,4.09
2017-07-20T15:23:25.549Z,4.10
2017-07-20T15:24:27.757Z,4.08
2017-07-20T15:25:30.415Z,4.10
2017-07-20T15:26:32.779Z,4.09
2017-07-20T15:27:35.708Z,4.08
2017-07-20T15:28:38.355Z,4.08